London Corbin Airport Magee Field London US
ICAO: KLOZ
IATA: LOZ
Category: Medium
Scheduled Services: No

Elevation: 1212 ft
TransAlt. 18000 ft.

Airport Communications:
ASOS:119.075
INDIANAPOLIS CNTR:121.325
LOUISVILLE RDO:122.2
CTAF/UNICOM:123

KLOZ Zoom In..

If you have problems with the map follow the link
https://www.worldairports.se/pages/airport.php?
ICAO=KLOZ

Runways:

(A) RW 06 length 5751 ft width 150 ft
ILS 110.90 / hdg 57

(B) RW 24 length 5751 ft width 150 ft
---- / hdg 237

Location; KLOZ
Day. 20 / Time. 09.53 Zulu
* Altimeter: 30.39
* Temperature: -08° c. -17.6°f.
* Wind from: 340° Speed 10 kn.
Dewpoint: -12° c.
Visibility: 10 Statute Miles.
Clouds: Overcast 1900 ft.

KLOZ 200953Z AUTO 34010KT 10SM OVC019 M08/M12 A3039 RMK AO2 SLP307 T10831122


Wind From 340°
Speed 10 kn.

 
 
jpsmedia worldairports.se 2020   terms of use